sensor_id;sensor_type;location;lat;lon;timestamp;pressure;altitude;pressure_sealevel;temperature;humidity
20017;BME280;10169;42.664;23.610;2023-04-06T00:01:03;95046.50;;;-0.50;100.00
20017;BME280;10169;42.664;23.610;2023-04-06T00:03:04;95004.06;;;-0.67;100.00
20017;BME280;10169;42.664;23.610;2023-04-06T00:05:04;95032.09;;;-0.46;100.00
20017;BME280;10169;42.664;23.610;2023-04-06T00:07:05;95038.56;;;-0.42;100.00
20017;BME280;10169;42.664;23.610;2023-04-06T00:09:05;95034.50;;;-0.45;100.00
20017;BME280;10169;42.664;23.610;2023-04-06T00:11:05;95028.31;;;-0.44;100.00
20017;BME280;10169;42.664;23.610;2023-04-06T00:13:06;95032.91;;;-0.46;100.00
20017;BME280;10169;42.664;23.610;2023-04-06T00:15:07;95025.59;;;-0.36;100.00
20017;BME280;10169;42.664;23.610;2023-04-06T00:17:07;95026.97;;;-0.40;100.00
20017;BME280;10169;42.664;23.610;2023-04-06T00:19:08;95015.63;;;-0.32;100.00
20017;BME280;10169;42.664;23.610;2023-04-06T00:21:10;95022.28;;;-0.30;100.00
20017;BME280;10169;42.664;23.610;2023-04-06T00:23:11;95022.94;;;-0.28;100.00
20017;BME280;10169;42.664;23.610;2023-04-06T00:25:11;95015.38;;;-0.23;100.00
20017;BME280;10169;42.664;23.610;2023-04-06T00:27:12;95011.56;;;-0.20;100.00
20017;BME280;10169;42.664;23.610;2023-04-06T00:29:12;95012.03;;;-0.17;100.00
20017;BME280;10169;42.664;23.610;2023-04-06T00:31:12;95017.53;;;-0.12;100.00
20017;BME280;10169;42.664;23.610;2023-04-06T00:33:13;95012.13;;;-0.10;100.00
20017;BME280;10169;42.664;23.610;2023-04-06T00:35:13;95009.94;;;-0.07;100.00
20017;BME280;10169;42.664;23.610;2023-04-06T00:37:15;95003.72;;;-0.06;100.00
20017;BME280;10169;42.664;23.610;2023-04-06T00:39:15;94994.25;;;-0.07;100.00
20017;BME280;10169;42.664;23.610;2023-04-06T00:41:17;95001.94;;;-0.05;100.00
20017;BME280;10169;42.664;23.610;2023-04-06T00:43:18;94998.16;;;-0.03;100.00
20017;BME280;10169;42.664;23.610;2023-04-06T00:45:18;94980.69;;;-0.17;100.00
20017;BME280;10169;42.664;23.610;2023-04-06T00:47:19;94997.34;;;-0.03;100.00
20017;BME280;10169;42.664;23.610;2023-04-06T00:49:19;94997.16;;;-0.02;100.00
20017;BME280;10169;42.664;23.610;2023-04-06T00:51:20;94999.84;;;0.05;100.00
20017;BME280;10169;42.664;23.610;2023-04-06T00:53:20;95005.59;;;0.00;100.00
20017;BME280;10169;42.664;23.610;2023-04-06T00:55:21;94991.56;;;0.02;100.00
20017;BME280;10169;42.664;23.610;2023-04-06T00:57:21;94996.88;;;0.08;100.00
20017;BME280;10169;42.664;23.610;2023-04-06T00:59:22;95001.97;;;0.16;100.00
20017;BME280;10169;42.664;23.610;2023-04-06T01:01:23;94991.38;;;0.18;100.00
20017;BME280;10169;42.664;23.610;2023-04-06T01:03:23;94999.56;;;0.15;100.00
20017;BME280;10169;42.664;23.610;2023-04-06T01:05:23;94991.38;;;0.03;100.00
20017;BME280;10169;42.664;23.610;2023-04-06T01:07:24;94997.84;;;0.07;100.00
20017;BME280;10169;42.664;23.610;2023-04-06T01:09:24;94997.78;;;0.00;100.00
20017;BME280;10169;42.664;23.610;2023-04-06T01:11:25;94997.41;;;0.04;100.00
20017;BME280;10169;42.664;23.610;2023-04-06T01:13:26;94988.41;;;0.06;100.00
20017;BME280;10169;42.664;23.610;2023-04-06T01:15:27;94988.97;;;0.02;100.00
20017;BME280;10169;42.664;23.610;2023-04-06T01:17:28;94977.50;;;0.03;100.00
20017;BME280;10169;42.664;23.610;2023-04-06T01:19:29;94984.28;;;-0.03;100.00
20017;BME280;10169;42.664;23.610;2023-04-06T01:21:29;94977.00;;;-0.08;100.00
20017;BME280;10169;42.664;23.610;2023-04-06T01:23:30;94979.69;;;-0.01;100.00
20017;BME280;10169;42.664;23.610;2023-04-06T01:25:30;94978.31;;;0.03;100.00
20017;BME280;10169;42.664;23.610;2023-04-06T01:27:30;94981.66;;;-0.03;100.00
20017;BME280;10169;42.664;23.610;2023-04-06T01:29:31;94970.28;;;0.05;100.00
20017;BME280;10169;42.664;23.610;2023-04-06T01:31:31;94970.03;;;-0.01;100.00
20017;BME280;10169;42.664;23.610;2023-04-06T01:33:31;94967.59;;;-0.02;100.00
20017;BME280;10169;42.664;23.610;2023-04-06T01:35:32;94959.22;;;0.03;100.00
20017;BME280;10169;42.664;23.610;2023-04-06T01:37:32;94958.97;;;-0.03;100.00
20017;BME280;10169;42.664;23.610;2023-04-06T01:39:32;94961.66;;;0.04;100.00
20017;BME280;10169;42.664;23.610;2023-04-06T01:41:33;94962.56;;;-0.04;100.00
20017;BME280;10169;42.664;23.610;2023-04-06T01:43:33;94960.78;;;-0.03;100.00
20017;BME280;10169;42.664;23.610;2023-04-06T01:45:34;94961.59;;;-0.03;100.00
20017;BME280;10169;42.664;23.610;2023-04-06T01:47:34;94962.56;;;-0.04;100.00
20017;BME280;10169;42.664;23.610;2023-04-06T01:49:34;94962.91;;;-0.07;100.00
20017;BME280;10169;42.664;23.610;2023-04-06T01:51:35;94967.88;;;0.03;100.00
20017;BME280;10169;42.664;23.610;2023-04-06T01:53:35;94965.44;;;0.02;100.00
20017;BME280;10169;42.664;23.610;2023-04-06T01:55:35;94963.25;;;0.05;100.00
20017;BME280;10169;42.664;23.610;2023-04-06T01:57:36;94959.06;;;0.04;100.00
20017;BME280;10169;42.664;23.610;2023-04-06T01:59:36;94951.66;;;0.08;100.00
20017;BME280;10169;42.664;23.610;2023-04-06T02:01:36;94951.28;;;0.11;100.00
20017;BME280;10169;42.664;23.610;2023-04-06T02:03:37;94946.06;;;0.11;100.00
20017;BME280;10169;42.664;23.610;2023-04-06T02:05:37;94947.03;;;0.10;100.00
20017;BME280;10169;42.664;23.610;2023-04-06T02:07:38;94952.66;;;0.07;100.00
20017;BME280;10169;42.664;23.610;2023-04-06T02:09:38;94947.31;;;0.15;100.00
20017;BME280;10169;42.664;23.610;2023-04-06T02:11:38;94954.94;;;0.16;100.00
20017;BME280;10169;42.664;23.610;2023-04-06T02:13:39;94952.78;;;0.20;100.00
20017;BME280;10169;42.664;23.610;2023-04-06T02:15:39;94946.31;;;0.16;100.00
20017;BME280;10169;42.664;23.610;2023-04-06T02:17:40;94948.94;;;0.16;100.00
20017;BME280;10169;42.664;23.610;2023-04-06T02:19:40;94942.44;;;0.12;100.00
20017;BME280;10169;42.664;23.610;2023-04-06T02:21:40;94943.25;;;0.12;100.00
20017;BME280;10169;42.664;23.610;2023-04-06T02:23:41;94938.28;;;0.17;100.00
20017;BME280;10169;42.664;23.610;2023-04-06T02:25:41;94934.94;;;0.23;100.00
20017;BME280;10169;42.664;23.610;2023-04-06T02:27:41;94937.66;;;0.15;100.00
20017;BME280;10169;42.664;23.610;2023-04-06T02:29:42;94940.72;;;0.19;100.00
20017;BME280;10169;42.664;23.610;2023-04-06T02:31:42;94934.88;;;0.17;100.00
20017;BME280;10169;42.664;23.610;2023-04-06T02:33:43;94937.13;;;0.20;100.00
20017;BME280;10169;42.664;23.610;2023-04-06T02:35:44;94941.97;;;0.23;100.00
20017;BME280;10169;42.664;23.610;2023-04-06T02:37:44;94939.97;;;0.25;100.00
20017;BME280;10169;42.664;23.610;2023-04-06T02:39:45;94947.75;;;0.18;100.00
20017;BME280;10169;42.664;23.610;2023-04-06T02:41:45;94939.97;;;0.25;100.00
20017;BME280;10169;42.664;23.610;2023-04-06T02:43:45;94936.06;;;0.35;100.00
20017;BME280;10169;42.664;23.610;2023-04-06T02:45:46;94937.69;;;0.36;100.00
20017;BME280;10169;42.664;23.610;2023-04-06T02:47:46;94942.28;;;0.34;100.00
20017;BME280;10169;42.664;23.610;2023-04-06T02:49:46;94941.78;;;0.24;100.00
20017;BME280;10169;42.664;23.610;2023-04-06T02:51:47;94945.44;;;0.30;100.00
20017;BME280;10169;42.664;23.610;2023-04-06T02:53:47;94938.78;;;0.27;100.00
20017;BME280;10169;42.664;23.610;2023-04-06T02:55:47;94950.31;;;0.33;100.00
20017;BME280;10169;42.664;23.610;2023-04-06T02:57:48;94948.59;;;0.40;100.00
20017;BME280;10169;42.664;23.610;2023-04-06T02:59:48;94951.00;;;0.41;100.00
20017;BME280;10169;42.664;23.610;2023-04-06T03:01:48;94947.41;;;0.42;100.00
20017;BME280;10169;42.664;23.610;2023-04-06T03:03:49;94946.22;;;0.45;100.00
20017;BME280;10169;42.664;23.610;2023-04-06T03:05:49;94949.44;;;0.26;100.00
20017;BME280;10169;42.664;23.610;2023-04-06T03:07:50;94951.31;;;0.32;100.00
20017;BME280;10169;42.664;23.610;2023-04-06T03:09:50;94941.59;;;0.26;100.00
20017;BME280;10169;42.664;23.610;2023-04-06T03:11:50;94950.69;;;0.30;100.00
20017;BME280;10169;42.664;23.610;2023-04-06T03:13:51;94949.97;;;0.36;100.00
20017;BME280;10169;42.664;23.610;2023-04-06T03:15:51;94957.97;;;0.34;100.00
20017;BME280;10169;42.664;23.610;2023-04-06T03:17:51;94956.38;;;0.33;100.00
20017;BME280;10169;42.664;23.610;2023-04-06T03:19:52;94949.56;;;0.39;100.00
20017;BME280;10169;42.664;23.610;2023-04-06T03:21:52;94956.59;;;0.38;100.00
20017;BME280;10169;42.664;23.610;2023-04-06T03:23:52;94951.91;;;0.34;100.00
20017;BME280;10169;42.664;23.610;2023-04-06T03:25:53;94956.97;;;0.35;100.00
20017;BME280;10169;42.664;23.610;2023-04-06T03:27:53;94960.03;;;0.39;100.00
20017;BME280;10169;42.664;23.610;2023-04-06T03:29:53;94960.66;;;0.41;100.00
20017;BME280;10169;42.664;23.610;2023-04-06T03:31:53;94949.56;;;0.39;100.00
20017;BME280;10169;42.664;23.610;2023-04-06T03:33:54;94947.41;;;0.42;100.00
20017;BME280;10169;42.664;23.610;2023-04-06T03:35:55;94961.25;;;0.43;100.00
20017;BME280;10169;42.664;23.610;2023-04-06T03:37:55;94953.19;;;0.38;100.00
20017;BME280;10169;42.664;23.610;2023-04-06T03:39:55;94945.72;;;0.35;100.00
20017;BME280;10169;42.664;23.610;2023-04-06T03:41:56;94948.00;;;0.23;100.00
20017;BME280;10169;42.664;23.610;2023-04-06T03:43:56;94957.91;;;0.28;100.00
20017;BME280;10169;42.664;23.610;2023-04-06T03:45:56;94949.88;;;0.29;100.00
20017;BME280;10169;42.664;23.610;2023-04-06T03:47:57;94952.94;;;0.33;100.00
20017;BME280;10169;42.664;23.610;2023-04-06T03:49:57;94946.94;;;0.39;100.00
20017;BME280;10169;42.664;23.610;2023-04-06T03:51:57;94945.53;;;0.36;100.00
20017;BME280;10169;42.664;23.610;2023-04-06T03:53:57;94946.94;;;0.39;100.00
20017;BME280;10169;42.664;23.610;2023-04-06T03:55:58;94947.22;;;0.44;100.00
20017;BME280;10169;42.664;23.610;2023-04-06T03:57:58;94945.28;;;0.31;100.00
20017;BME280;10169;42.664;23.610;2023-04-06T03:59:58;94944.72;;;0.36;100.00
20017;BME280;10169;42.664;23.610;2023-04-06T04:01:59;94950.66;;;0.44;100.00
20017;BME280;10169;42.664;23.610;2023-04-06T04:04:00;94946.47;;;0.50;100.00
20017;BME280;10169;42.664;23.610;2023-04-06T04:06:00;94951.31;;;0.53;100.00
20017;BME280;10169;42.664;23.610;2023-04-06T04:08:00;94953.69;;;0.48;100.00
20017;BME280;10169;42.664;23.610;2023-04-06T04:10:01;94948.66;;;0.46;100.00
20017;BME280;10169;42.664;23.610;2023-04-06T04:12:01;94946.59;;;0.42;100.00
20017;BME280;10169;42.664;23.610;2023-04-06T04:14:01;94942.19;;;0.42;100.00
20017;BME280;10169;42.664;23.610;2023-04-06T04:16:02;94954.19;;;0.37;100.00
20017;BME280;10169;42.664;23.610;2023-04-06T04:18:02;94944.25;;;0.47;100.00
20017;BME280;10169;42.664;23.610;2023-04-06T04:20:03;94943.16;;;0.41;100.00
20017;BME280;10169;42.664;23.610;2023-04-06T04:22:03;94948.72;;;0.53;100.00
20017;BME280;10169;42.664;23.610;2023-04-06T04:24:06;94947.34;;;0.57;100.00
20017;BME280;10169;42.664;23.610;2023-04-06T04:26:07;94949.94;;;0.57;100.00
20017;BME280;10169;42.664;23.610;2023-04-06T04:28:07;94942.88;;;0.51;100.00
20017;BME280;10169;42.664;23.610;2023-04-06T04:30:07;94950.72;;;0.51;100.00
20017;BME280;10169;42.664;23.610;2023-04-06T04:32:08;94954.81;;;0.60;100.00
20017;BME280;10169;42.664;23.610;2023-04-06T04:34:08;94954.06;;;0.45;100.00
20017;BME280;10169;42.664;23.610;2023-04-06T04:36:08;94956.09;;;0.49;100.00
20017;BME280;10169;42.664;23.610;2023-04-06T04:38:10;94954.19;;;0.58;100.00
20017;BME280;10169;42.664;23.610;2023-04-06T04:40:10;94957.38;;;0.53;100.00
20017;BME280;10169;42.664;23.610;2023-04-06T04:42:11;94957.19;;;0.55;100.00
20017;BME280;10169;42.664;23.610;2023-04-06T04:44:11;94949.13;;;0.56;100.00
20017;BME280;10169;42.664;23.610;2023-04-06T04:46:11;94948.63;;;0.67;100.00
20017;BME280;10169;42.664;23.610;2023-04-06T04:48:12;94948.88;;;0.72;100.00
20017;BME280;10169;42.664;23.610;2023-04-06T04:50:12;94949.16;;;0.78;100.00
20017;BME280;10169;42.664;23.610;2023-04-06T04:52:12;94945.25;;;0.67;100.00
20017;BME280;10169;42.664;23.610;2023-04-06T04:54:12;94947.34;;;0.78;100.00
20017;BME280;10169;42.664;23.610;2023-04-06T04:56:13;94945.75;;;0.84;100.00
20017;BME280;10169;42.664;23.610;2023-04-06T04:58:13;94952.38;;;0.80;100.00
20017;BME280;10169;42.664;23.610;2023-04-06T05:00:16;94948.63;;;0.67;100.00
20017;BME280;10169;42.664;23.610;2023-04-06T05:02:17;94952.56;;;0.78;100.00
20017;BME280;10169;42.664;23.610;2023-04-06T05:04:17;94957.81;;;0.78;100.00
20017;BME280;10169;42.664;23.610;2023-04-06T05:06:18;94952.69;;;0.70;100.00
20017;BME280;10169;42.664;23.610;2023-04-06T05:08:19;94959.75;;;0.69;100.00
20017;BME280;10169;42.664;23.610;2023-04-06T05:10:20;94959.66;;;0.63;100.00
20017;BME280;10169;42.664;23.610;2023-04-06T05:12:20;94961.59;;;0.76;100.00
20017;BME280;10169;42.664;23.610;2023-04-06T05:14:21;94956.38;;;0.76;100.00
20017;BME280;10169;42.664;23.610;2023-04-06T05:16:21;94955.59;;;0.82;100.00
20017;BME280;10169;42.664;23.610;2023-04-06T05:18:22;94961.59;;;0.76;100.00
20017;BME280;10169;42.664;23.610;2023-04-06T05:20:22;94958.44;;;0.80;100.00
20017;BME280;10169;42.664;23.610;2023-04-06T05:22:22;94959.16;;;0.74;100.00
20017;BME280;10169;42.664;23.610;2023-04-06T05:24:23;94963.03;;;0.78;100.00
20017;BME280;10169;42.664;23.610;2023-04-06T05:26:23;94952.75;;;0.77;100.00
20017;BME280;10169;42.664;23.610;2023-04-06T05:28:24;94955.88;;;0.87;100.00
20017;BME280;10169;42.664;23.610;2023-04-06T05:30:24;94951.44;;;0.87;100.00
20017;BME280;10169;42.664;23.610;2023-04-06T05:32:25;94944.16;;;0.83;100.00
20017;BME280;10169;42.664;23.610;2023-04-06T05:34:26;94958.47;;;0.87;100.00
20017;BME280;10169;42.664;23.610;2023-04-06T05:36:26;94957.84;;;0.85;100.00
20017;BME280;10169;42.664;23.610;2023-04-06T05:38:26;94948.44;;;0.90;100.00
20017;BME280;10169;42.664;23.610;2023-04-06T05:40:27;94947.06;;;0.94;100.00
20017;BME280;10169;42.664;23.610;2023-04-06T05:42:27;94951.31;;;0.95;100.00
20017;BME280;10169;42.664;23.610;2023-04-06T05:44:27;94942.84;;;0.93;100.00
20017;BME280;10169;42.664;23.610;2023-04-06T05:46:31;94938.72;;;0.84;100.00
20017;BME280;10169;42.664;23.610;2023-04-06T05:48:31;94935.13;;;0.85;100.00
20017;BME280;10169;42.664;23.610;2023-04-06T05:50:32;94934.13;;;0.86;100.00
20017;BME280;10169;42.664;23.610;2023-04-06T05:52:32;94936.84;;;0.99;100.00
20017;BME280;10169;42.664;23.610;2023-04-06T05:54:33;94933.59;;;0.97;100.00
20017;BME280;10169;42.664;23.610;2023-04-06T05:56:33;94935.81;;;0.94;100.00
20017;BME280;10169;42.664;23.610;2023-04-06T05:58:33;94928.00;;;1.00;100.00
20017;BME280;10169;42.664;23.610;2023-04-06T06:00:34;94919.09;;;0.95;100.00
20017;BME280;10169;42.664;23.610;2023-04-06T06:02:34;94924.03;;;1.11;100.00
20017;BME280;10169;42.664;23.610;2023-04-06T06:04:34;94924.81;;;1.05;100.00
20017;BME280;10169;42.664;23.610;2023-04-06T06:06:35;94923.50;;;0.94;100.00
20017;BME280;10169;42.664;23.610;2023-04-06T06:08:36;94929.09;;;1.12;100.00
20017;BME280;10169;42.664;23.610;2023-04-06T06:10:37;94929.78;;;1.21;100.00
20017;BME280;10169;42.664;23.610;2023-04-06T06:12:38;94929.47;;;1.09;100.00
20017;BME280;10169;42.664;23.610;2023-04-06T06:14:38;94932.81;;;1.24;100.00
20017;BME280;10169;42.664;23.610;2023-04-06T06:16:38;94930.09;;;1.11;100.00
20017;BME280;10169;42.664;23.610;2023-04-06T06:18:38;94924.00;;;1.04;100.00
20017;BME280;10169;42.664;23.610;2023-04-06T06:20:39;94932.75;;;1.18;100.00
20017;BME280;10169;42.664;23.610;2023-04-06T06:22:39;94933.63;;;1.25;100.00
20017;BME280;10169;42.664;23.610;2023-04-06T06:24:40;94931.91;;;1.38;100.00
20017;BME280;10169;42.664;23.610;2023-04-06T06:26:40;94942.31;;;1.32;100.00
20017;BME280;10169;42.664;23.610;2023-04-06T06:28:41;94931.47;;;1.07;100.00
20017;BME280;10169;42.664;23.610;2023-04-06T06:30:41;94935.44;;;1.03;100.00
20017;BME280;10169;42.664;23.610;2023-04-06T06:32:41;94938.59;;;1.20;100.00
20017;BME280;10169;42.664;23.610;2023-04-06T06:34:42;94931.84;;;1.32;100.00
20017;BME280;10169;42.664;23.610;2023-04-06T06:36:42;94938.44;;;1.56;100.00
20017;BME280;10169;42.664;23.610;2023-04-06T06:38:42;94931.56;;;1.20;100.00
20017;BME280;10169;42.664;23.610;2023-04-06T06:40:43;94933.16;;;1.21;100.00
20017;BME280;10169;42.664;23.610;2023-04-06T06:42:45;94936.22;;;1.25;100.00
20017;BME280;10169;42.664;23.610;2023-04-06T06:44:45;94930.47;;;1.36;100.00
20017;BME280;10169;42.664;23.610;2023-04-06T06:46:45;94915.63;;;1.15;100.00
20017;BME280;10169;42.664;23.610;2023-04-06T06:48:46;94938.53;;;1.34;100.00
20017;BME280;10169;42.664;23.610;2023-04-06T06:50:47;94933.16;;;1.49;100.00
20017;BME280;10169;42.664;23.610;2023-04-06T06:52:47;94933.19;;;1.56;100.00
20017;BME280;10169;42.664;23.610;2023-04-06T06:54:47;94936.75;;;1.48;100.00
20017;BME280;10169;42.664;23.610;2023-04-06T06:56:48;94941.25;;;1.54;100.00
20017;BME280;10169;42.664;23.610;2023-04-06T06:58:48;94939.78;;;1.79;100.00
20017;BME280;10169;42.664;23.610;2023-04-06T07:00:48;94944.63;;;1.82;100.00
20017;BME280;10169;42.664;23.610;2023-04-06T07:02:49;94937.97;;;1.86;100.00
20017;BME280;10169;42.664;23.610;2023-04-06T07:04:49;94934.38;;;1.87;100.00
20017;BME280;10169;42.664;23.610;2023-04-06T07:06:50;94935.22;;;2.01;100.00
20017;BME280;10169;42.664;23.610;2023-04-06T07:08:50;94939.34;;;1.76;100.00
20017;BME280;10169;42.664;23.610;2023-04-06T07:10:51;94944.31;;;2.05;100.00
20017;BME280;10169;42.664;23.610;2023-04-06T07:12:52;94930.25;;;2.19;100.00
20017;BME280;10169;42.664;23.610;2023-04-06T07:14:52;94941.00;;;2.37;100.00
20017;BME280;10169;42.664;23.610;2023-04-06T07:16:53;94934.09;;;2.30;100.00
20017;BME280;10169;42.664;23.610;2023-04-06T07:18:53;94936.50;;;2.25;100.00
20017;BME280;10169;42.664;23.610;2023-04-06T07:20:53;94942.78;;;2.30;100.00
20017;BME280;10169;42.664;23.610;2023-04-06T07:22:54;94931.50;;;2.36;100.00
20017;BME280;10169;42.664;23.610;2023-04-06T07:24:54;94925.69;;;2.47;100.00
20017;BME280;10169;42.664;23.610;2023-04-06T07:26:55;94926.47;;;2.41;100.00
20017;BME280;10169;42.664;23.610;2023-04-06T07:28:56;94930.28;;;2.26;100.00
20017;BME280;10169;42.664;23.610;2023-04-06T07:30:57;94924.22;;;2.32;100.00
20017;BME280;10169;42.664;23.610;2023-04-06T07:32:57;94926.28;;;2.43;100.00
20017;BME280;10169;42.664;23.610;2023-04-06T07:34:58;94933.53;;;2.41;100.00
20017;BME280;10169;42.664;23.610;2023-04-06T07:36:59;94935.84;;;2.03;100.00
20017;BME280;10169;42.664;23.610;2023-04-06T07:39:00;94936.66;;;2.03;100.00
20017;BME280;10169;42.664;23.610;2023-04-06T07:41:01;94929.75;;;1.96;100.00
20017;BME280;10169;42.664;23.610;2023-04-06T07:43:03;94930.13;;;1.93;100.00
20017;BME280;10169;42.664;23.610;2023-04-06T07:45:04;94930.00;;;2.07;100.00
20017;BME280;10169;42.664;23.610;2023-04-06T07:47:04;94934.69;;;2.25;100.00
20017;BME280;10169;42.664;23.610;2023-04-06T07:49:05;94941.94;;;2.16;100.00
20017;BME280;10169;42.664;23.610;2023-04-06T07:51:05;94930.25;;;2.12;100.00
20017;BME280;10169;42.664;23.610;2023-04-06T07:53:06;94931.44;;;2.10;100.00
20017;BME280;10169;42.664;23.610;2023-04-06T07:55:07;94925.84;;;2.33;100.00
20017;BME280;10169;42.664;23.610;2023-04-06T07:57:07;94921.47;;;2.53;100.00
20017;BME280;10169;42.664;23.610;2023-04-06T07:59:07;94909.38;;;2.71;100.00
20017;BME280;10169;42.664;23.610;2023-04-06T08:01:08;94924.06;;;2.46;100.00
20017;BME280;10169;42.664;23.610;2023-04-06T08:03:08;94929.06;;;2.28;100.00
20017;BME280;10169;42.664;23.610;2023-04-06T08:05:09;94928.25;;;2.28;100.00
20017;BME280;10169;42.664;23.610;2023-04-06T08:07:09;94919.75;;;2.12;100.00
20017;BME280;10169;42.664;23.610;2023-04-06T08:09:10;94926.78;;;2.05;100.00
20017;BME280;10169;42.664;23.610;2023-04-06T08:11:10;94937.41;;;1.97;100.00
20017;BME280;10169;42.664;23.610;2023-04-06T08:13:11;94939.28;;;2.10;100.00
20017;BME280;10169;42.664;23.610;2023-04-06T08:15:11;94931.44;;;2.10;100.00
20017;BME280;10169;42.664;23.610;2023-04-06T08:17:11;94938.50;;;2.16;100.00
20017;BME280;10169;42.664;23.610;2023-04-06T08:19:12;94933.53;;;2.41;100.00
20017;BME280;10169;42.664;23.610;2023-04-06T08:21:12;94927.09;;;2.56;100.00
20017;BME280;10169;42.664;23.610;2023-04-06T08:23:13;94923.72;;;2.82;100.00
20017;BME280;10169;42.664;23.610;2023-04-06T08:25:13;94922.25;;;2.47;100.00
20017;BME280;10169;42.664;23.610;2023-04-06T08:27:13;94933.56;;;2.67;100.00
20017;BME280;10169;42.664;23.610;2023-04-06T08:29:14;94935.44;;;2.92;100.00
20017;BME280;10169;42.664;23.610;2023-04-06T08:31:16;94934.44;;;3.13;100.00
20017;BME280;10169;42.664;23.610;2023-04-06T08:33:16;94935.22;;;2.94;100.00
20017;BME280;10169;42.664;23.610;2023-04-06T08:35:16;94936.41;;;2.91;100.00
20017;BME280;10169;42.664;23.610;2023-04-06T08:37:17;94935.59;;;2.71;100.00
20017;BME280;10169;42.664;23.610;2023-04-06T08:39:17;94938.25;;;2.91;100.00
20017;BME280;10169;42.664;23.610;2023-04-06T08:41:23;94934.81;;;2.97;100.00
20017;BME280;10169;42.664;23.610;2023-04-06T08:43:24;94920.69;;;2.78;100.00
20017;BME280;10169;42.664;23.610;2023-04-06T08:45:26;94954.00;;;2.84;100.00
20017;BME280;10169;42.664;23.610;2023-04-06T08:47:27;94931.38;;;2.97;100.00
20017;BME280;10169;42.664;23.610;2023-04-06T08:49:28;94922.31;;;3.06;100.00
20017;BME280;10169;42.664;23.610;2023-04-06T08:51:29;94919.47;;;3.33;100.00
20017;BME280;10169;42.664;23.610;2023-04-06T08:53:30;94916.47;;;3.94;100.00
20017;BME280;10169;42.664;23.610;2023-04-06T08:55:30;94929.16;;;4.10;100.00
20017;BME280;10169;42.664;23.610;2023-04-06T08:57:31;94918.50;;;3.98;100.00
20017;BME280;10169;42.664;23.610;2023-04-06T08:59:31;94924.59;;;3.79;100.00
20017;BME280;10169;42.664;23.610;2023-04-06T09:01:33;94926.94;;;4.07;100.00
20017;BME280;10169;42.664;23.610;2023-04-06T09:03:38;94926.34;;;4.05;100.00
20017;BME280;10169;42.664;23.610;2023-04-06T09:05:39;94923.69;;;4.11;100.00
20017;BME280;10169;42.664;23.610;2023-04-06T09:07:40;94919.19;;;3.67;100.00
20017;BME280;10169;42.664;23.610;2023-04-06T09:09:40;94921.91;;;4.05;100.00
20017;BME280;10169;42.664;23.610;2023-04-06T09:11:48;94922.88;;;4.11;100.00
20017;BME280;10169;42.664;23.610;2023-04-06T09:13:50;94899.72;;;3.82;100.00
20017;BME280;10169;42.664;23.610;2023-04-06T09:18:00;94923.84;;;4.23;99.37
20017;BME280;10169;42.664;23.610;2023-04-06T09:20:01;94903.72;;;3.97;100.00
20017;BME280;10169;42.664;23.610;2023-04-06T09:22:03;94919.00;;;4.20;100.00
20017;BME280;10169;42.664;23.610;2023-04-06T09:24:04;94915.59;;;4.51;98.03
20017;BME280;10169;42.664;23.610;2023-04-06T09:26:05;94921.28;;;4.48;97.99
20017;BME280;10169;42.664;23.610;2023-04-06T09:28:05;94918.88;;;4.39;94.77
20017;BME280;10169;42.664;23.610;2023-04-06T09:30:08;94916.22;;;4.53;93.58
20017;BME280;10169;42.664;23.610;2023-04-06T09:32:09;94916.81;;;4.86;90.37
20017;BME280;10169;42.664;23.610;2023-04-06T09:34:20;94916.22;;;5.08;88.38
20017;BME280;10169;42.664;23.610;2023-04-06T09:36:29;94905.75;;;5.02;87.54
20017;BME280;10169;42.664;23.610;2023-04-06T09:38:30;94910.44;;;4.93;90.98
20017;BME280;10169;42.664;23.610;2023-04-06T09:40:30;94908.81;;;4.68;91.16
20017;BME280;10169;42.664;23.610;2023-04-06T09:42:30;94906.22;;;4.92;87.84
20017;BME280;10169;42.664;23.610;2023-04-06T09:44:31;94923.84;;;4.92;85.77
20017;BME280;10169;42.664;23.610;2023-04-06T09:46:32;94921.47;;;4.84;86.57
20017;BME280;10169;42.664;23.610;2023-04-06T09:48:33;94918.41;;;4.87;88.01
20017;BME280;10169;42.664;23.610;2023-04-06T09:50:35;94918.56;;;4.92;89.34
20017;BME280;10169;42.664;23.610;2023-04-06T09:52:56;94906.88;;;5.12;89.97
20017;BME280;10169;42.664;23.610;2023-04-06T09:54:58;94914.28;;;5.47;86.30
20017;BME280;10169;42.664;23.610;2023-04-06T10:01:26;94911.94;;;4.52;92.80
20017;BME280;10169;42.664;23.610;2023-04-06T10:07:42;94903.13;;;4.71;88.03
20017;BME280;10169;42.664;23.610;2023-04-06T10:09:45;94904.22;;;5.37;85.11
20017;BME280;10169;42.664;23.610;2023-04-06T10:11:46;94899.06;;;5.24;83.88
20017;BME280;10169;42.664;23.610;2023-04-06T10:13:47;94894.91;;;4.61;83.53
20017;BME280;10169;42.664;23.610;2023-04-06T10:15:48;94891.41;;;4.67;85.18
20017;BME280;10169;42.664;23.610;2023-04-06T10:17:49;94896.97;;;5.08;83.93
20017;BME280;10169;42.664;23.610;2023-04-06T10:19:55;94900.78;;;5.12;81.84
20017;BME280;10169;42.664;23.610;2023-04-06T10:21:58;94895.03;;;5.22;85.13
20017;BME280;10169;42.664;23.610;2023-04-06T10:24:00;94903.59;;;5.17;81.98
20017;BME280;10169;42.664;23.610;2023-04-06T10:26:01;94897.56;;;5.10;83.05
20017;BME280;10169;42.664;23.610;2023-04-06T10:28:05;94899.06;;;5.24;83.10
20017;BME280;10169;42.664;23.610;2023-04-06T10:30:06;94889.06;;;4.83;83.82
20017;BME280;10169;42.664;23.610;2023-04-06T10:32:06;94889.78;;;5.22;84.74
20017;BME280;10169;42.664;23.610;2023-04-06T10:34:07;94879.56;;;5.07;84.31
20017;BME280;10169;42.664;23.610;2023-04-06T10:36:14;94897.19;;;5.92;85.75
20017;BME280;10169;42.664;23.610;2023-04-06T10:38:15;94894.34;;;5.94;79.46
20017;BME280;10169;42.664;23.610;2023-04-06T10:40:21;94884.63;;;6.53;77.99
20017;BME280;10169;42.664;23.610;2023-04-06T10:42:35;94887.34;;;6.17;73.62